createdAt,value
2018-06-17T00:02:19.727Z,5.40
2018-06-17T00:04:47.990Z,5.27
2018-06-17T00:07:16.246Z,4.63
2018-06-17T00:09:44.540Z,5.83
2018-06-17T00:12:12.809Z,5.87
2018-06-17T00:14:41.127Z,5.93
2018-06-17T00:17:09.412Z,5.50
2018-06-17T00:19:37.668Z,5.63
2018-06-17T00:22:05.938Z,5.50
2018-06-17T00:24:34.239Z,5.27
2018-06-17T00:27:02.538Z,4.90
2018-06-17T00:29:30.867Z,5.10
2018-06-17T00:31:59.175Z,5.30
2018-06-17T00:34:27.430Z,5.00
2018-06-17T00:36:55.683Z,5.03
2018-06-17T00:39:23.942Z,4.70
2018-06-17T00:41:52.196Z,5.67
2018-06-17T00:44:20.441Z,5.20
2018-06-17T00:46:48.691Z,5.17
2018-06-17T00:49:17.012Z,4.97
2018-06-17T00:51:45.335Z,5.27
2018-06-17T00:54:13.637Z,4.80
2018-06-17T00:56:41.982Z,5.50
2018-06-17T00:59:09.950Z,5.27
2018-06-17T01:01:38.199Z,4.90
2018-06-17T01:04:06.477Z,4.53
2018-06-17T01:06:34.723Z,4.80
2018-06-17T01:09:03.015Z,4.93
2018-06-17T01:11:31.304Z,5.40
2018-06-17T01:13:59.568Z,5.30
2018-06-17T01:16:28.522Z,5.80
2018-06-17T01:18:56.880Z,5.20
2018-06-17T01:21:25.137Z,5.20
2018-06-17T01:23:53.395Z,5.50
2018-06-17T01:26:21.694Z,4.77
2018-06-17T01:28:50.126Z,5.17
2018-06-17T01:31:18.371Z,5.03
2018-06-17T01:33:46.683Z,6.13
2018-06-17T01:36:14.964Z,4.47
2018-06-17T01:38:43.295Z,5.43
2018-06-17T01:41:11.351Z,5.63
2018-06-17T01:43:39.576Z,5.47
2018-06-17T01:46:07.834Z,4.67
2018-06-17T01:48:36.076Z,6.67
2018-06-17T01:51:04.483Z,5.83
2018-06-17T01:53:32.840Z,5.27
2018-06-17T01:56:00.855Z,4.80
2018-06-17T01:58:30.082Z,4.77
2018-06-17T02:00:58.369Z,4.83
2018-06-17T02:03:32.072Z,4.90
2018-06-17T02:06:05.753Z,4.57
2018-06-17T02:08:39.441Z,4.70
2018-06-17T02:11:39.643Z,5.07
2018-06-17T02:14:13.417Z,4.80
2018-06-17T02:16:42.469Z,4.80
2018-06-17T02:19:11.032Z,4.20
2018-06-17T02:21:39.624Z,4.73
2018-06-17T02:24:08.269Z,5.00
2018-06-17T02:26:36.265Z,4.83
2018-06-17T02:29:04.535Z,4.50
2018-06-17T02:31:33.011Z,4.70
2018-06-17T02:34:01.422Z,4.87
2018-06-17T02:36:30.651Z,4.50
2018-06-17T02:38:58.895Z,5.00
2018-06-17T02:41:27.179Z,4.97
2018-06-17T02:43:55.526Z,4.67
2018-06-17T02:46:29.290Z,4.57
2018-06-17T02:49:02.872Z,5.07
2018-06-17T02:51:36.684Z,4.47
2018-06-17T02:54:10.352Z,4.90
2018-06-17T02:56:38.634Z,4.70
2018-06-17T02:59:06.861Z,4.80
2018-06-17T03:01:35.111Z,4.60
2018-06-17T03:04:03.414Z,4.23
2018-06-17T03:06:31.660Z,5.30
2018-06-17T03:08:59.962Z,4.80
2018-06-17T03:11:27.950Z,4.40
2018-06-17T03:13:56.176Z,5.10
2018-06-17T03:16:24.439Z,4.70
2018-06-17T03:18:52.703Z,4.93
2018-06-17T03:21:20.988Z,4.93
2018-06-17T03:23:49.303Z,5.07
2018-06-17T03:26:22.975Z,4.80
2018-06-17T03:28:56.852Z,5.33
2018-06-17T03:31:25.132Z,4.87
2018-06-17T03:33:54.973Z,5.20
2018-06-17T03:36:23.274Z,4.73
2018-06-17T03:38:51.652Z,4.50
2018-06-17T03:41:19.931Z,5.10
2018-06-17T03:43:48.203Z,4.73
2018-06-17T03:46:16.506Z,4.90
2018-06-17T03:48:44.785Z,4.40
2018-06-17T03:51:13.061Z,4.80
2018-06-17T03:53:41.335Z,4.67
2018-06-17T03:56:09.666Z,5.33
2018-06-17T03:58:37.947Z,4.50
2018-06-17T04:01:06.236Z,4.10
2018-06-17T04:03:34.496Z,4.10
2018-06-17T04:06:02.800Z,3.93
2018-06-17T04:08:30.823Z,4.87
2018-06-17T04:10:59.120Z,4.30
2018-06-17T04:13:27.477Z,4.20
2018-06-17T04:15:55.788Z,4.13
2018-06-17T04:18:24.075Z,4.77
2018-06-17T04:20:53.239Z,4.33
2018-06-17T04:23:21.521Z,4.47
2018-06-17T04:25:49.773Z,4.57
2018-06-17T04:28:18.082Z,4.17
2018-06-17T04:30:46.341Z,3.70
2018-06-17T04:33:14.623Z,3.87
2018-06-17T04:35:42.876Z,4.03
2018-06-17T04:38:11.130Z,3.70
2018-06-17T04:40:39.387Z,4.30
2018-06-17T04:43:07.647Z,3.90
2018-06-17T04:45:35.948Z,4.10
2018-06-17T04:48:04.230Z,4.07
2018-06-17T04:50:32.540Z,4.30
2018-06-17T04:53:00.763Z,3.70
2018-06-17T04:55:28.782Z,3.80
2018-06-17T04:57:57.122Z,3.40
2018-06-17T05:00:25.402Z,3.97
2018-06-17T05:02:53.703Z,3.47
2018-06-17T05:05:21.955Z,3.67
2018-06-17T05:07:50.381Z,2.87
2018-06-17T05:10:18.628Z,3.17
2018-06-17T05:12:46.899Z,3.03
2018-06-17T05:15:15.145Z,3.20
2018-06-17T05:17:43.445Z,7.83
2018-06-17T05:20:12.080Z,3.50
2018-06-17T05:22:40.395Z,6.40
2018-06-17T05:25:08.689Z,4.07
2018-06-17T05:27:36.959Z,3.20
2018-06-17T05:30:05.478Z,3.77
2018-06-17T05:32:33.751Z,3.80
2018-06-17T05:35:02.063Z,3.33
2018-06-17T05:37:30.319Z,6.77
2018-06-17T05:39:58.614Z,5.80
2018-06-17T05:42:26.881Z,3.57
2018-06-17T05:44:55.302Z,3.10
2018-06-17T05:47:23.565Z,2.80
2018-06-17T05:49:51.902Z,3.30
2018-06-17T05:52:20.180Z,2.60
2018-06-17T05:54:48.457Z,3.87
2018-06-17T05:57:16.759Z,3.50
2018-06-17T05:59:45.026Z,2.70
2018-06-17T06:02:13.302Z,3.67
2018-06-17T06:04:41.556Z,2.60
2018-06-17T06:07:09.843Z,2.67
2018-06-17T06:09:38.130Z,2.40
2018-06-17T06:12:06.441Z,3.07
2018-06-17T06:14:34.720Z,2.70
2018-06-17T06:17:02.952Z,3.00
2018-06-17T06:19:31.179Z,3.30
2018-06-17T06:21:59.504Z,3.47
2018-06-17T06:24:27.795Z,3.03
2018-06-17T06:26:55.782Z,3.23
2018-06-17T06:29:24.069Z,5.33
2018-06-17T06:31:52.286Z,3.20
2018-06-17T06:34:20.564Z,3.00
2018-06-17T06:36:48.861Z,5.20
2018-06-17T06:39:17.155Z,3.50
2018-06-17T06:41:45.536Z,3.30
2018-06-17T06:44:13.500Z,3.23
2018-06-17T06:46:41.503Z,3.27
2018-06-17T06:49:09.792Z,2.83
2018-06-17T06:51:38.045Z,2.50
2018-06-17T06:54:06.303Z,3.07
2018-06-17T06:56:34.617Z,2.80
2018-06-17T06:59:02.948Z,3.03
2018-06-17T07:01:42.632Z,2.50
2018-06-17T07:04:22.303Z,2.93
2018-06-17T07:07:02.022Z,2.67
2018-06-17T07:09:40.550Z,2.60
2018-06-17T07:12:08.810Z,2.80
2018-06-17T07:14:37.029Z,2.87
2018-06-17T07:17:16.687Z,2.23
2018-06-17T07:19:44.667Z,3.25
2018-06-17T07:22:13.012Z,2.67
2018-06-17T07:24:41.307Z,2.87
2018-06-17T07:27:20.880Z,2.62
2018-06-17T07:29:49.185Z,2.45
2018-06-17T07:32:17.436Z,2.83
2018-06-17T07:34:45.729Z,2.50
2018-06-17T07:37:13.968Z,2.45
2018-06-17T07:40:53.540Z,2.27
2018-06-17T07:43:21.851Z,2.37
2018-06-17T07:45:50.183Z,4.60
2018-06-17T07:48:29.993Z,3.92
2018-06-17T07:51:09.663Z,2.50
2018-06-17T07:53:37.955Z,3.12
2018-06-17T07:56:07.074Z,2.30
2018-06-17T07:58:35.295Z,2.58
2018-06-17T08:01:03.287Z,2.62
2018-06-17T08:03:31.565Z,3.20
2018-06-17T08:05:59.844Z,2.62
2018-06-17T08:08:28.136Z,2.50
2018-06-17T08:10:56.406Z,3.00
2018-06-17T08:13:24.705Z,3.00
2018-06-17T08:15:53.033Z,2.72
2018-06-17T08:18:21.699Z,2.62
2018-06-17T08:20:49.967Z,3.20
2018-06-17T08:23:18.257Z,2.90
2018-06-17T08:25:46.534Z,2.58
2018-06-17T08:28:14.532Z,6.97
2018-06-17T08:30:42.787Z,3.65
2018-06-17T08:33:10.773Z,2.92
2018-06-17T08:35:39.058Z,3.00
2018-06-17T08:38:07.336Z,3.30
2018-06-17T08:40:35.659Z,2.80
2018-06-17T08:43:03.944Z,3.40
2018-06-17T08:45:32.428Z,3.30
2018-06-17T08:48:00.713Z,3.05
2018-06-17T08:50:28.933Z,3.50
2018-06-17T08:52:57.231Z,2.80
2018-06-17T08:55:25.477Z,2.75
2018-06-17T08:57:53.777Z,2.85
2018-06-17T09:00:22.024Z,2.87
2018-06-17T09:02:50.277Z,4.35
2018-06-17T09:05:18.569Z,4.12
2018-06-17T09:07:46.821Z,2.75
2018-06-17T09:10:21.550Z,2.67
2018-06-17T09:12:49.567Z,3.00
2018-06-17T09:15:17.891Z,3.00
2018-06-17T09:17:46.140Z,2.85
2018-06-17T09:20:14.436Z,2.65
2018-06-17T09:22:42.734Z,3.00
2018-06-17T09:25:11.056Z,2.60
2018-06-17T09:27:39.263Z,2.45
2018-06-17T09:30:07.560Z,2.62
2018-06-17T09:32:35.518Z,2.30
2018-06-17T09:35:03.518Z,2.83
2018-06-17T09:37:31.736Z,2.83
2018-06-17T09:40:00.030Z,2.30
2018-06-17T09:42:28.034Z,2.55
2018-06-17T09:44:56.989Z,2.20
2018-06-17T09:47:25.300Z,2.77
2018-06-17T09:49:53.555Z,2.60
2018-06-17T09:52:21.853Z,2.45
2018-06-17T09:54:50.172Z,3.02
2018-06-17T09:57:18.468Z,1.80
2018-06-17T09:59:46.774Z,2.58
2018-06-17T10:02:14.995Z,2.67
2018-06-17T10:04:43.291Z,2.65
2018-06-17T10:07:11.819Z,2.50
2018-06-17T10:09:50.970Z,2.55
2018-06-17T10:12:20.008Z,2.83
2018-06-17T10:14:48.011Z,2.70
2018-06-17T10:17:16.276Z,2.52
2018-06-17T10:19:44.659Z,2.60
2018-06-17T10:22:12.976Z,3.10
2018-06-17T10:24:41.311Z,2.98
2018-06-17T10:27:09.619Z,2.50
2018-06-17T10:29:37.945Z,2.35
2018-06-17T10:32:06.233Z,2.40
2018-06-17T10:34:34.259Z,2.40
2018-06-17T10:37:02.558Z,2.65
2018-06-17T10:39:30.843Z,2.70
2018-06-17T10:41:58.873Z,2.45
2018-06-17T10:44:27.132Z,2.45
2018-06-17T10:46:55.424Z,2.58
2018-06-17T10:49:23.701Z,2.40
2018-06-17T10:51:51.984Z,2.40
2018-06-17T10:54:20.242Z,2.00
2018-06-17T10:56:48.544Z,2.52
2018-06-17T10:59:16.844Z,2.12
2018-06-17T11:01:45.103Z,2.33
2018-06-17T11:04:13.347Z,2.00
2018-06-17T11:06:41.666Z,2.17
2018-06-17T11:09:09.938Z,2.40
2018-06-17T11:11:38.210Z,2.80
2018-06-17T11:14:06.496Z,2.70
2018-06-17T11:16:35.610Z,2.47
2018-06-17T11:19:03.971Z,2.65
2018-06-17T11:21:32.315Z,2.85
2018-06-17T11:24:00.580Z,2.25
2018-06-17T11:26:28.852Z,2.42
2018-06-17T11:28:57.134Z,2.30
2018-06-17T11:31:25.439Z,2.80
2018-06-17T11:33:53.705Z,2.80
2018-06-17T11:36:22.007Z,2.60
2018-06-17T11:38:50.516Z,4.05
2018-06-17T11:41:18.541Z,3.00
2018-06-17T11:43:46.809Z,2.33
2018-06-17T11:46:15.070Z,2.83
2018-06-17T11:48:43.403Z,2.50
2018-06-17T11:51:11.694Z,2.70
2018-06-17T11:53:39.977Z,2.25
2018-06-17T11:56:08.279Z,2.25
2018-06-17T11:58:36.564Z,2.47
2018-06-17T12:01:04.978Z,3.22
2018-06-17T12:03:32.975Z,3.00
2018-06-17T12:06:01.267Z,2.70
2018-06-17T12:08:29.539Z,2.35
2018-06-17T12:10:57.835Z,2.70
2018-06-17T12:13:26.164Z,3.17
2018-06-17T12:15:54.177Z,2.42
2018-06-17T12:18:22.481Z,2.60
2018-06-17T12:20:50.788Z,2.47
2018-06-17T12:23:18.777Z,2.42
2018-06-17T12:25:47.104Z,2.40
2018-06-17T12:28:15.512Z,2.60
2018-06-17T12:30:43.883Z,2.90
2018-06-17T12:33:11.864Z,2.60
2018-06-17T12:35:40.176Z,2.83
2018-06-17T12:38:08.475Z,2.80
2018-06-17T12:40:36.826Z,2.65
2018-06-17T12:43:05.153Z,2.58
2018-06-17T12:45:33.493Z,2.40
2018-06-17T12:48:01.858Z,2.75
2018-06-17T12:50:31.040Z,2.70
2018-06-17T12:52:59.723Z,2.55
2018-06-17T12:55:27.988Z,3.12
2018-06-17T12:57:56.387Z,2.60
2018-06-17T13:00:24.687Z,4.28
2018-06-17T13:02:53.019Z,2.72
2018-06-17T13:05:21.375Z,3.17
2018-06-17T13:07:50.126Z,2.50
2018-06-17T13:10:18.406Z,2.70
2018-06-17T13:12:46.772Z,2.60
2018-06-17T13:15:15.063Z,2.92
2018-06-17T13:17:43.384Z,2.20
2018-06-17T13:20:11.390Z,2.42
2018-06-17T13:22:40.360Z,2.80
2018-06-17T13:25:08.796Z,2.35
2018-06-17T13:27:37.129Z,2.55
2018-06-17T13:30:05.565Z,2.63
2018-06-17T13:32:33.844Z,2.93
2018-06-17T13:35:02.436Z,2.63
2018-06-17T13:37:30.699Z,3.37
2018-06-17T13:39:58.953Z,3.03
2018-06-17T13:42:27.327Z,2.73
2018-06-17T13:44:56.248Z,2.70
2018-06-17T13:47:24.512Z,2.47
2018-06-17T13:49:52.807Z,2.20
2018-06-17T13:52:20.850Z,2.13
2018-06-17T13:54:49.319Z,2.83
2018-06-17T13:57:17.604Z,3.20
2018-06-17T13:59:45.906Z,3.10
2018-06-17T14:02:14.699Z,3.13
2018-06-17T14:04:43.015Z,2.33
2018-06-17T14:07:11.308Z,2.70
2018-06-17T14:09:40.263Z,2.37
2018-06-17T14:12:09.281Z,2.40
2018-06-17T14:14:37.600Z,2.70
2018-06-17T14:17:05.850Z,2.58
2018-06-17T14:19:34.160Z,2.67
2018-06-17T14:22:02.508Z,2.92
2018-06-17T14:24:30.800Z,2.50
2018-06-17T14:26:59.092Z,2.37
2018-06-17T14:29:27.364Z,2.40
2018-06-17T14:31:55.838Z,2.40
2018-06-17T14:34:24.249Z,2.42
2018-06-17T14:36:52.349Z,2.42
2018-06-17T14:39:20.760Z,3.02
2018-06-17T14:41:54.458Z,2.50
2018-06-17T14:44:28.317Z,2.20
2018-06-17T14:47:02.141Z,2.17
2018-06-17T14:49:35.730Z,2.53
2018-06-17T14:53:07.843Z,1.92
2018-06-17T14:55:36.210Z,2.60
2018-06-17T14:58:05.052Z,2.55
2018-06-17T15:00:33.419Z,2.35
2018-06-17T15:03:01.426Z,2.75
2018-06-17T15:05:29.702Z,2.40
2018-06-17T15:07:58.067Z,2.83
2018-06-17T15:10:26.384Z,2.87
2018-06-17T15:12:54.717Z,2.00
2018-06-17T15:15:22.965Z,2.50
2018-06-17T15:17:51.289Z,2.37
2018-06-17T15:20:19.602Z,2.20
2018-06-17T15:22:47.849Z,2.37
2018-06-17T15:25:16.157Z,3.30
2018-06-17T15:27:45.013Z,2.47
2018-06-17T15:30:14.068Z,2.40
2018-06-17T15:32:47.891Z,2.10
2018-06-17T15:35:21.643Z,2.20
2018-06-17T15:37:55.269Z,2.07
2018-06-17T15:40:28.917Z,2.40
2018-06-17T15:42:57.201Z,2.20
2018-06-17T15:45:25.512Z,2.20
2018-06-17T15:47:53.805Z,2.33
2018-06-17T15:50:22.100Z,2.47
2018-06-17T15:52:50.358Z,2.67
2018-06-17T15:55:19.586Z,2.33
2018-06-17T15:57:47.931Z,2.03
2018-06-17T16:00:16.258Z,2.50
2018-06-17T16:02:44.795Z,2.17
2018-06-17T16:05:13.421Z,2.70
2018-06-17T16:07:41.711Z,1.87
2018-06-17T16:10:10.015Z,2.53
2018-06-17T16:12:43.697Z,2.20
2018-06-17T16:15:17.563Z,2.10
2018-06-17T16:17:51.395Z,1.90
2018-06-17T16:20:25.073Z,1.97
2018-06-17T16:22:53.339Z,2.17
2018-06-17T16:25:21.390Z,1.93
2018-06-17T16:27:49.674Z,1.90
2018-06-17T16:30:17.983Z,1.70
2018-06-17T16:32:46.228Z,2.30
2018-06-17T16:35:14.272Z,1.87
2018-06-17T16:37:42.530Z,1.80
2018-06-17T16:40:10.864Z,2.00
2018-06-17T16:42:39.136Z,2.00
2018-06-17T16:45:07.419Z,2.50
2018-06-17T16:47:35.705Z,2.57
2018-06-17T16:50:04.143Z,2.27
2018-06-17T16:52:37.883Z,2.23
2018-06-17T16:55:11.921Z,2.20
2018-06-17T16:57:45.694Z,2.70
2018-06-17T17:00:16.549Z,2.63
2018-06-17T17:02:45.325Z,2.40
2018-06-17T17:05:19.862Z,2.57
2018-06-17T17:07:48.147Z,2.50
2018-06-17T17:10:17.211Z,2.13
2018-06-17T17:12:45.481Z,2.10
2018-06-17T17:15:13.803Z,2.40
2018-06-17T17:17:42.142Z,2.20
2018-06-17T17:20:10.443Z,2.27
2018-06-17T17:22:38.732Z,2.60
2018-06-17T17:25:07.108Z,2.20
2018-06-17T17:27:35.483Z,2.03
2018-06-17T17:30:03.966Z,2.03
2018-06-17T17:32:37.883Z,2.00
2018-06-17T17:35:11.859Z,2.43
2018-06-17T17:37:45.726Z,2.20
2018-06-17T17:40:19.359Z,2.13
2018-06-17T17:42:47.668Z,2.57
2018-06-17T17:45:17.598Z,2.97
2018-06-17T17:47:45.980Z,2.30
2018-06-17T17:50:14.232Z,1.90
2018-06-17T17:52:42.627Z,2.50
2018-06-17T17:55:10.891Z,2.20
2018-06-17T17:57:39.216Z,2.13
2018-06-17T18:00:07.830Z,2.47
2018-06-17T18:02:36.061Z,1.80
2018-06-17T18:05:04.599Z,2.40
2018-06-17T18:07:32.972Z,2.30
2018-06-17T18:10:01.295Z,2.60
2018-06-17T18:12:29.657Z,2.20
2018-06-17T18:14:58.351Z,3.00
2018-06-17T18:17:26.699Z,2.80
2018-06-17T18:19:55.103Z,2.37
2018-06-17T18:22:23.426Z,2.30
2018-06-17T18:24:57.392Z,2.67
2018-06-17T18:27:31.479Z,2.20
2018-06-17T18:30:05.619Z,2.20
2018-06-17T18:32:39.473Z,2.03
2018-06-17T18:35:18.552Z,2.20
2018-06-17T18:37:47.233Z,1.80
2018-06-17T18:40:15.740Z,1.93
2018-06-17T18:42:44.092Z,2.40
2018-06-17T18:45:12.155Z,2.20
2018-06-17T18:47:40.416Z,2.03
2018-06-17T18:50:08.743Z,2.23
2018-06-17T18:52:37.143Z,1.70
2018-06-17T18:55:05.216Z,1.80
2018-06-17T18:57:33.731Z,8.03
2018-06-17T19:00:02.076Z,3.17
2018-06-17T19:02:30.385Z,1.97
2018-06-17T19:04:58.688Z,2.17
2018-06-17T19:07:27.014Z,2.60
2018-06-17T19:10:00.834Z,2.20
2018-06-17T19:12:34.600Z,1.73
2018-06-17T19:15:08.145Z,2.00
2018-06-17T19:17:41.812Z,2.40
2018-06-17T19:20:10.225Z,2.70
2018-06-17T19:22:39.898Z,2.23
2018-06-17T19:25:07.960Z,2.57
2018-06-17T19:27:36.311Z,2.50
2018-06-17T19:30:04.891Z,2.47
2018-06-17T19:32:33.513Z,2.50
2018-06-17T19:35:01.841Z,2.60
2018-06-17T19:37:30.186Z,3.80
2018-06-17T19:39:58.468Z,3.10
2018-06-17T19:42:26.912Z,2.87
2018-06-17T19:44:55.327Z,3.17
2018-06-17T19:47:23.934Z,3.27
2018-06-17T19:49:57.774Z,3.27
2018-06-17T19:52:31.536Z,2.80
2018-06-17T19:55:05.251Z,2.53
2018-06-17T19:57:38.788Z,3.20
2018-06-17T20:00:12.468Z,2.23
2018-06-17T20:02:40.864Z,2.47
2018-06-17T20:05:09.294Z,3.97
2018-06-17T20:07:37.489Z,4.37
2018-06-17T20:10:06.326Z,2.87
2018-06-17T20:12:34.429Z,2.93
2018-06-17T20:15:02.821Z,2.97
2018-06-17T20:17:31.141Z,3.60
2018-06-17T20:19:59.450Z,3.10
2018-06-17T20:22:27.780Z,3.03
2018-06-17T20:24:56.058Z,3.00
2018-06-17T20:27:24.325Z,2.70
2018-06-17T20:29:52.611Z,3.10
2018-06-17T20:33:24.847Z,13.30
2018-06-17T20:35:58.945Z,6.47
2018-06-17T20:38:32.593Z,3.50
2018-06-17T20:41:06.218Z,3.10
2018-06-17T20:43:39.771Z,2.80
2018-06-17T20:46:08.052Z,3.03
2018-06-17T20:48:36.351Z,2.80
2018-06-17T20:51:04.652Z,2.20
2018-06-17T20:53:32.946Z,2.60
2018-06-17T20:56:01.258Z,2.40
2018-06-17T20:58:29.468Z,2.90
2018-06-17T21:00:57.761Z,2.33
2018-06-17T21:03:26.007Z,2.50
2018-06-17T21:05:54.930Z,2.40
2018-06-17T21:08:23.223Z,2.53
2018-06-17T21:10:51.635Z,3.13
2018-06-17T21:13:20.199Z,3.50
2018-06-17T21:15:48.452Z,3.90
2018-06-17T21:18:22.261Z,3.47
2018-06-17T21:20:55.570Z,2.53
2018-06-17T21:23:29.097Z,2.63
2018-06-17T21:26:02.849Z,3.10
2018-06-17T21:28:30.826Z,2.87
2018-06-17T21:30:59.192Z,2.30
2018-06-17T21:33:27.467Z,2.37
2018-06-17T21:35:55.736Z,2.30
2018-06-17T21:38:23.976Z,2.17
2018-06-17T21:40:52.248Z,1.97
2018-06-17T21:43:20.547Z,2.30
2018-06-17T21:45:48.844Z,2.37
2018-06-17T21:48:17.124Z,2.13
2018-06-17T21:50:45.380Z,1.97
2018-06-17T21:53:13.690Z,2.57
2018-06-17T21:55:41.947Z,1.80
2018-06-17T21:58:10.188Z,2.37
2018-06-17T22:00:38.515Z,2.50
2018-06-17T22:03:06.797Z,2.40
2018-06-17T22:05:34.854Z,2.40
2018-06-17T22:08:08.405Z,2.00
2018-06-17T22:10:41.998Z,2.10
2018-06-17T22:13:10.255Z,2.17
2018-06-17T22:15:43.976Z,2.27
2018-06-17T22:18:12.255Z,2.23
2018-06-17T22:20:40.487Z,2.47
2018-06-17T22:23:08.722Z,2.20
2018-06-17T22:25:36.982Z,2.27
2018-06-17T22:28:05.252Z,2.57
2018-06-17T22:30:33.605Z,1.97
2018-06-17T22:33:01.965Z,2.27
2018-06-17T22:35:30.243Z,2.63
2018-06-17T22:37:58.277Z,3.10
2018-06-17T22:40:26.569Z,2.93
2018-06-17T22:42:54.858Z,3.80
2018-06-17T22:45:23.111Z,3.50
2018-06-17T22:47:59.490Z,4.70
2018-06-17T22:50:27.998Z,4.47
2018-06-17T22:53:01.646Z,3.13
2018-06-17T22:55:29.943Z,3.30
2018-06-17T22:58:03.687Z,2.87
2018-06-17T23:00:37.160Z,2.60
2018-06-17T23:03:11.165Z,2.93
2018-06-17T23:05:44.758Z,2.87
2018-06-17T23:08:18.563Z,2.53
2018-06-17T23:10:46.747Z,2.97
2018-06-17T23:13:15.013Z,2.93
2018-06-17T23:15:43.272Z,2.63
2018-06-17T23:18:11.561Z,2.50
2018-06-17T23:20:39.782Z,2.50
2018-06-17T23:23:08.054Z,2.80
2018-06-17T23:25:36.319Z,2.50
2018-06-17T23:28:04.597Z,2.20
2018-06-17T23:30:32.867Z,2.27
2018-06-17T23:33:01.143Z,2.00
2018-06-17T23:35:29.489Z,2.73
2018-06-17T23:37:57.793Z,2.30
2018-06-17T23:40:26.044Z,2.67
2018-06-17T23:42:54.322Z,2.33
2018-06-17T23:45:22.563Z,2.00
2018-06-17T23:47:56.469Z,2.07
2018-06-17T23:50:30.208Z,2.37
2018-06-17T23:53:03.799Z,2.63
2018-06-17T23:55:37.480Z,2.20
2018-06-17T23:58:05.815Z,2.00
